Flight Track Log - Related Links

Times and Time Zones

All times are in EDT time to prevent confusion due to time zone crossing. See the SWA127 flight status page for this flight to view local times or setup timezone preferences in your user account.

Time Position Orientation Groundspeed Altitude Reporting Facility
EDT Latitude Longitude Course Direction KTS km/h feet Rate Location/Type
Sat 14:35:01 42.3500 -71.0167 233° Southwest 155 286 1,000  Level KA90
Sat 14:37:22 42.2703 -71.1606 233° Southwest 219 406 7,700 3,089 Climbing Boston Center
Sat 14:38:23 42.2631 -71.2592 264° West 250 463 11,400 2,975 Climbing Boston Center
Sat 14:39:23 42.2536 -71.3742 264° West 299 554 13,700 2,926 Climbing Boston Center
Sat 14:40:24 42.2422 -71.4978 263° West 332 615 17,300 3,176 Climbing Boston Center
Sat 14:41:22 42.2328 -71.6186 264° West 347 642 20,000 2,695 Climbing Boston Center
Sat 14:42:22 42.2192 -71.7478 262° West 352 652 22,600 2,492 Climbing Boston Center
Sat 14:44:00 42.1919 -71.9647 262° West  Level FlightAware Approximate
Sat 14:44:25 42.2078 -72.0111 262° West 352 652 27,600  Level Boston Center
Sat 14:45:22 42.2042 -72.1150 267° West 352 652 29,500 2,441 Climbing Boston Center
Sat 14:46:23 42.2003 -72.2692 268° West 347 642 32,400 2,628 Climbing Boston Center
Sat 14:47:23 42.1961 -72.3925 267° West 347 642 34,800 2,300 Climbing Boston Center
Sat 14:48:23 42.1919 -72.5072 267° West 335 621 37,000 1,587 Climbing Boston Center
Sat 14:49:24 42.1878 -72.6111 267° West 310 575 38,000 496 Climbing Boston Center
Sat 14:50:24 42.1833 -72.7314 267° West 303 562 38,000  Level Boston Center
Sat 14:51:22 42.1786 -72.8519 267° West 303 562 38,000  Level Boston Center
Sat 14:52:22 42.1742 -72.9781 267° West 325 602 38,000  Level Boston Center
Sat 14:53:23 42.1692 -73.1094 267° West 346 641 38,000  Level Boston Center
Sat 14:54:24 42.1642 -73.2439 267° West 352 652 38,000  Level Boston Center
Sat 14:55:22 42.1614 -73.3475 268° West 357 661 38,000  Level Boston Center
Sat 14:56:23 42.1581 -73.4903 268° West 357 661 38,000  Level Boston Center
Sat 14:57:25 42.1525 -73.6219 267° West 357 661 38,000  Level Boston Center
Sat 14:58:22 42.1425 -73.7783 265° West 370 686 38,000  Level Boston Center
Sat 14:59:24 42.1367 -73.9100 267° West 369 684 38,000  Level Boston Center
Sat 15:00:24 42.1306 -74.0414 266° West 364 674 38,000  Level Boston Center
Sat 15:01:22 42.1225 -74.1756 265° West 364 674 38,000  Level Boston Center
Sat 15:02:23 42.1183 -74.3097 268° West 364 674 38,000  Level Boston Center
Sat 15:04:10 42.1050 -74.5447 266° West 358 663 38,000  Level New York Center
Sat 15:05:10 42.0908 -74.6611 261° West 358 663 38,000  Level New York Center
Sat 15:06:11 42.0533 -74.7844 248° West 358 663 38,000  Level New York Center
Sat 15:07:11 42.0158 -74.9078 248° West 353 653 38,000  Level New York Center
Sat 15:08:12 41.9761 -75.0308 247° West 360 666 38,000  Level New York Center
Sat 15:09:10 41.9403 -75.1542 249° West 365 676 38,000  Level New York Center
Sat 15:10:11 41.9025 -75.2769 248° West 365 676 38,000  Level New York Center
Sat 15:11:12 41.8644 -75.3997 247° West 365 676 38,000  Level New York Center
Sat 15:12:10 41.8283 -75.5197 248° West 365 676 38,000  Level New York Center
Sat 15:13:10 41.7903 -75.6394 247° West 365 676 38,000  Level New York Center
Sat 15:14:11 41.7519 -75.7617 247° West 365 676 38,000  Level New York Center
Sat 15:15:11 41.7133 -75.8864 248° West 365 676 38,000  Level New York Center
Sat 15:16:11 41.6747 -76.0058 247° West 365 676 38,000  Level New York Center
Sat 15:17:12 41.6381 -76.1278 248° West 365 676 38,000  Level New York Center
Sat 15:18:10 41.5989 -76.2522 247° West 365 676 38,000  Level New York Center
Sat 15:19:11 41.5622 -76.3711 248° West 365 676 38,000  Level New York Center
Sat 15:20:11 41.5231 -76.4928 247° West 365 676 38,000  Level New York Center
Sat 15:21:11 41.4792 -76.6247 246° West 365 676 38,000  Level New York Center
Sat 15:22:12 41.4400 -76.7431 246° West 365 676 38,000  Level New York Center
Sat 15:23:12 41.4003 -76.8667 247° West 365 676 38,000  Level New York Center
Sat 15:24:11 41.3608 -76.9847 246° West 365 676 38,000  Level New York Center
Sat 15:25:11 41.3211 -77.1056 246° West 365 676 38,000  Level New York Center
Sat 15:26:10 41.2814 -77.2261 246° West 365 676 38,000  Level New York Center
Sat 15:27:11 41.2417 -77.3408 245° Southwest 365 676 38,000  Level New York Center
Sat 15:29:35 41.1522 -77.6103 246° West 353 653 38,000  Level Cleveland Center
Sat 15:30:35 41.1114 -77.7306 246° West 353 653 38,000  Level Cleveland Center
Sat 15:31:35 41.0725 -77.8481 246° West 353 653 38,000  Level Cleveland Center
Sat 15:32:35 41.0336 -77.9597 245° Southwest 348 644 38,000 250 Level Cleveland Center
Sat 15:33:35 40.9944 -78.0769 246° West 348 644 38,500 600 Climbing Cleveland Center
Sat 15:34:35 40.9553 -78.1967 247° West 348 644 39,200 750 Climbing Cleveland Center
Sat 15:35:35 40.9181 -78.3106 247° West 348 644 40,000 400 Climbing Cleveland Center
Sat 15:36:35 40.8767 -78.4275 245° Southwest 348 644 40,000  Level Cleveland Center
Sat 15:37:35 40.8308 -78.5553 245° Southwest 348 644 40,000  Level Cleveland Center
Sat 15:38:35 40.8081 -78.6792 256° West 348 644 40,000  Level Cleveland Center
Sat 15:39:35 40.7956 -78.8114 263° West 348 644 40,000  Level Cleveland Center
Sat 15:40:35 40.7831 -78.9433 263° West 360 666 40,000  Level Cleveland Center
Sat 15:41:35 40.7742 -79.0586 264° West 360 666 40,000  Level Cleveland Center
Sat 15:42:35 40.7611 -79.1906 263° West 365 676 40,000  Level Cleveland Center
Sat 15:43:35 40.7481 -79.3225 263° West 365 676 40,000  Level Cleveland Center
Sat 15:44:35 40.7350 -79.4486 262° West 365 676 40,000  Level Cleveland Center
Sat 15:45:35 40.7214 -79.5803 262° West 365 676 40,000  Level Cleveland Center
Sat 15:46:35 40.7081 -79.7119 262° West 365 676 40,000  Level Cleveland Center
Sat 15:47:35 40.6944 -79.8411 262° West 370 686 40,000  Level Cleveland Center
Sat 15:48:35 40.6825 -79.9697 263° West 370 686 40,000  Level Cleveland Center
Sat 15:49:35 40.6625 -80.1178 260° West 376 697 40,000  Level Cleveland Center
Sat 15:50:35 40.6503 -80.2464 263° West 371 687 40,000  Level Cleveland Center
Sat 15:51:35 40.6361 -80.3589 261° West 361 668 40,000 -300 Level Cleveland Center
Sat 15:52:35 40.6217 -80.5011 262° West 361 668 39,400 -750 Descending Cleveland Center
Sat 15:53:35 40.6069 -80.6294 261° West 356 660 38,500 -700 Descending Cleveland Center
Sat 15:54:35 40.5944 -80.7581 263° West 356 660 38,000 -250 Descending Cleveland Center
Sat 15:55:35 40.5794 -80.8975 262° West 356 660 38,000  Level Cleveland Center
Sat 15:57:57 40.5408 -81.2078 261° West 372 689 38,000  Level Indianapolis Center
Sat 15:58:59 40.5242 -81.3431 261° West 371 687 38,000  Level Indianapolis Center
Sat 16:00:00 40.5097 -81.4789 262° West 371 687 38,000  Level Indianapolis Center
Sat 16:01:02 40.4925 -81.6153 261° West 374 692 38,000  Level Indianapolis Center
Sat 16:02:04 40.4764 -81.7506 261° West 371 687 38,000  Level Indianapolis Center
Sat 16:03:05 40.4597 -81.8861 261° West 372 689 38,000  Level Indianapolis Center
Sat 16:04:07 40.4408 -82.0233 260° West 378 700 38,000  Level Indianapolis Center
Sat 16:05:08 40.4214 -82.1594 259° West 376 697 38,000  Level Indianapolis Center
Sat 16:06:10 40.4025 -82.2933 260° West 369 684 38,000  Level Indianapolis Center
Sat 16:07:11 40.3778 -82.4525 259° West 374 692 38,000  Level Indianapolis Center
Sat 16:08:13 40.3581 -82.5861 259° West 372 689 38,000  Level Indianapolis Center
Sat 16:09:15 40.3378 -82.7192 259° West 370 686 38,000  Level Indianapolis Center
Sat 16:10:16 40.3189 -82.8386 258° West 368 681 38,000  Level Indianapolis Center
Sat 16:11:18 40.2986 -82.9711 259° West 368 681 38,000  Level Indianapolis Center
Sat 16:12:19 40.2747 -83.1247 259° West 368 681 38,000  Level Indianapolis Center
Sat 16:13:21 40.2533 -83.2578 258° West 371 687 38,000  Level Indianapolis Center
Sat 16:14:22 40.2328 -83.3892 258° West 368 681 38,000  Level Indianapolis Center
Sat 16:15:24 40.2125 -83.5197 259° West 366 678 38,000  Level Indianapolis Center
Sat 16:16:26 40.1919 -83.6486 258° West 363 673 38,000  Level Indianapolis Center
Sat 16:17:27 40.1711 -83.7783 258° West 364 674 38,000  Level Indianapolis Center
Sat 16:18:29 40.1489 -83.9092 258° West 369 684 38,000  Level Indianapolis Center
Sat 16:19:30 40.1278 -84.0414 258° West 370 686 38,000  Level Indianapolis Center
Sat 16:20:32 40.1019 -84.1961 258° West 371 687 38,000  Level Indianapolis Center
Sat 16:21:33 40.0794 -84.3286 258° West 372 689 38,000  Level Indianapolis Center
Sat 16:22:35 40.0575 -84.4617 258° West 372 689 38,000  Level Indianapolis Center
Sat 16:23:37 40.0344 -84.5953 257° West 374 692 38,000  Level Indianapolis Center
Sat 16:24:38 40.0117 -84.7269 257° West 371 687 38,000  Level Indianapolis Center
Sat 16:25:40 39.9883 -84.8600 257° West 372 689 38,000  Level Indianapolis Center
Sat 16:26:41 39.9667 -84.9917 258° West 370 686 38,000  Level Indianapolis Center
Sat 16:27:43 39.9436 -85.1239 257° West 371 687 38,000  Level Indianapolis Center
Sat 16:28:44 39.9197 -85.2536 257° West 368 681 38,000  Level Indianapolis Center
Sat 16:29:46 39.8972 -85.3853 257° West 370 686 38,000  Level Indianapolis Center
Sat 16:30:48 39.8703 -85.5400 257° West 370 686 38,000  Level Indianapolis Center
Sat 16:31:49 39.8447 -85.6714 256° West 371 687 38,000  Level Indianapolis Center
Sat 16:32:51 39.8214 -85.8039 257° West 372 689 38,000  Level Indianapolis Center
Sat 16:33:52 39.7989 -85.9358 258° West 373 690 38,000  Level Indianapolis Center
Sat 16:34:54 39.7764 -86.0531 256° West 373 690 38,000  Level Indianapolis Center
Sat 16:35:55 39.7478 -86.2086 257° West 370 686 38,000  Level Indianapolis Center
Sat 16:36:57 39.7244 -86.3386 257° West 369 684 38,000 -439 Level Indianapolis Center
Sat 16:37:58 39.6997 -86.4672 256° West 368 681 37,100 -927 Descending Indianapolis Center
Sat 16:39:00 39.6742 -86.5972 256° West 370 686 36,100 -878 Descending Indianapolis Center
Sat 16:40:01 39.6503 -86.7294 257° West 375 695 35,300 -878 Descending Indianapolis Center
Sat 16:41:03 39.6253 -86.8564 256° West 366 678 34,300 -927 Descending Indianapolis Center
Sat 16:42:04 39.6008 -86.9867 256° West 371 687 33,400 -927 Descending Indianapolis Center
Sat 16:43:06 39.5769 -87.1106 256° West 358 663 32,400 -683 Descending Indianapolis Center
Sat 16:44:07 39.5528 -87.2347 256° West 355 658 32,000 -195 Descending Indianapolis Center
Sat 16:45:09 39.5281 -87.3581 255° West 352 652 32,000  Level Indianapolis Center
Sat 16:46:10 39.4989 -87.5053 256° West 350 649 32,000  Level Indianapolis Center
Sat 16:47:11 39.4747 -87.6303 256° West 356 660 32,000  Level Indianapolis Center
Sat 16:48:13 39.4497 -87.7544 255° West 357 661 32,000 -439 Level Indianapolis Center
Sat 16:49:14 39.4247 -87.8800 256° West 358 663 31,100 -1,659 Descending Indianapolis Center
Sat 16:50:16 39.3989 -88.0061 255° West 361 668 28,600 -1,805 Descending Indianapolis Center
Sat 16:51:17 39.3719 -88.1233 253° West 350 649 27,400 -1,073 Descending Indianapolis Center
Sat 16:52:19 39.3431 -88.2381 252° West 341 631 26,400 -1,077 Descending Indianapolis Center
Sat 16:53:14 39.3119 -88.3539 251° West 336 623 25,300 -1,059 Descending Kansas City Center
Sat 16:54:18 39.2822 -88.4656 251° West 331 613 24,300 -619 Descending Kansas City Center
Sat 16:55:20 39.2517 -88.5767 250° West 328 607 24,000 -581 Descending Kansas City Center
Sat 16:56:22 39.2219 -88.6894 251° West 326 604 23,100 -934 Descending Kansas City Center
Sat 16:57:22 39.1919 -88.7992 251° West 326 604 22,100 -960 Descending Kansas City Center
Sat 16:58:27 39.1619 -88.9075 250° West 323 599 21,100 -528 Descending Kansas City Center
Sat 16:59:27 39.1303 -89.0281 251° West 315 583 21,000 -50 Descending Kansas City Center
Sat 17:00:27 39.0978 -89.1428 250° West 317 587 21,000 -545 Level Kansas City Center
Sat 17:01:06 39.0828 -89.1544 211° Southwest 312 578 20,100 -1,831 Descending FAA TRACON SMA TRACON (SMA)
Sat 17:01:26 39.0728 -89.1953 253° West 312 578 19,200 -2,250 Descending FAA TRACON SMA TRACON (SMA)
Sat 17:01:46 39.0664 -89.2281 256° West 310 575 18,600 -2,000 Descending FAA TRACON SMA TRACON (SMA)
Sat 17:02:05 39.0586 -89.2603 253° West 306 566 17,900 -2,250 Descending FAA TRACON SMA TRACON (SMA)
Sat 17:02:26 39.0497 -89.3003 254° West 304 563 17,100 -2,195 Descending FAA TRACON SMA TRACON (SMA)
Sat 17:02:46 39.0408 -89.3308 249° West 300 555 16,400 -2,154 Descending FAA TRACON SMA TRACON (SMA)
Sat 17:03:05 39.0344 -89.3625 255° West 297 550 15,700 -2,100 Descending FAA TRACON SMA TRACON (SMA)
Sat 17:03:26 39.0253 -89.4014 253° West 295 546 15,000 -1,902 Descending FAA TRACON SMA TRACON (SMA)
Sat 17:03:46 39.0186 -89.4322 254° West 293 542 14,400 -1,846 Descending FAA TRACON SMA TRACON (SMA)
Sat 17:04:05 39.0119 -89.4628 254° West 289 536 13,800 -1,980 Descending FAA TRACON SMA TRACON (SMA)
Sat 17:05:26 38.9575 -89.5833 240° Southwest 292 541 11,100 -1,900 Descending FAA TRACON SMA TRACON (SMA)
Sat 17:06:05 38.9222 -89.6278 224° Southwest 290 538 10,000 -1,200 Descending FAA TRACON SMA TRACON (SMA)
Sat 17:06:26 38.9000 -89.6542 223° Southwest 282 523 9,900 -146 Descending FAA TRACON SMA TRACON (SMA)
Sat 17:06:46 38.8844 -89.6739 225° Southwest 267 494 9,900  Level FAA TRACON SMA TRACON (SMA)
Sat 17:07:05 38.8694 -89.6933 225° Southwest 255 472 9,900 -750 Level FAA TRACON SMA TRACON (SMA)
Sat 17:07:26 38.8508 -89.7175 225° Southwest 248 459 9,400 -1,317 Descending FAA TRACON SMA TRACON (SMA)
Sat 17:07:46 38.8356 -89.7358 223° Southwest 244 452 9,000 -769 Descending FAA TRACON SMA TRACON (SMA)
Sat 17:08:05 38.8203 -89.7544 224° Southwest 244 452 8,900 -150 Descending FAA TRACON SMA TRACON (SMA)
Sat 17:08:26 38.8014 -89.7781 224° Southwest 245 454 8,900 -293 Level FAA TRACON SMA TRACON (SMA)
Sat 17:08:46 38.7869 -89.7967 225° Southwest 242 447 8,700 -923 Descending FAA TRACON SMA TRACON (SMA)
Sat 17:09:05 38.7722 -89.8147 224° Southwest 241 446 8,300 -1,200 Descending FAA TRACON SMA TRACON (SMA)
Sat 17:09:26 38.7575 -89.8331 224° Southwest 239 443 7,900 -1,610 Descending FAA TRACON SMA TRACON (SMA)
Sat 17:09:46 38.7406 -89.8569 228° Southwest 236 438 7,200 -2,308 Descending FAA TRACON SMA TRACON (SMA)
Sat 17:10:05 38.7325 -89.8806 246° West 236 438 6,400 -2,700 Descending FAA TRACON SMA TRACON (SMA)
Sat 17:10:26 38.7236 -89.9111 250° West 239 443 5,400 -2,049 Descending FAA TRACON SMA TRACON (SMA)
Sat 17:10:46 38.7156 -89.9372 248° West 248 459 5,000 -769 Descending FAA TRACON SMA TRACON (SMA)
Sat 17:11:05 38.7072 -89.9633 248° West 255 472 4,900 -600 Descending FAA TRACON SMA TRACON (SMA)
Sat 17:11:26 38.6989 -89.9889 247° West 256 475 4,600 -1,317 Descending FAA TRACON SMA TRACON (SMA)
Sat 17:11:46 38.6908 -90.0217 253° West 254 470 4,000 -1,692 Descending FAA TRACON SMA TRACON (SMA)
Sat 17:12:05 38.6903 -90.0494 269° West 256 475 3,500 -900 Descending FAA TRACON SMA TRACON (SMA)
Sat 17:12:26 38.6906 -90.0767 271° West 252 467 3,400  Descending FAA TRACON SMA TRACON (SMA)
Sat 17:12:46 38.6917 -90.1081 273° West 233 431 3,500  Climbing FAA TRACON SMA TRACON (SMA)
Sat 17:13:05 38.6922 -90.1308 272° West 213 394 3,400 -900 Descending FAA TRACON SMA TRACON (SMA)
Sat 17:13:46 38.6944 -90.1731 274° West 166 307 2,600 -1,200 Descending FAA TRACON SMA TRACON (SMA)
Sat 17:14:05 38.6972 -90.1911 281° West 164 304 2,200 -900 Descending FAA TRACON SMA TRACON (SMA)
Sat 17:14:26 38.7006 -90.2072 285° West 158 293 2,000 -878 Descending FAA TRACON SMA TRACON (SMA)
Sat 17:14:46 38.7061 -90.2247 292° West 141 261 1,600 -1,077 Descending FAA TRACON SMA TRACON (SMA)
Sat 17:15:05 38.7108 -90.2386 294° West 136 253 1,300 -750 Descending FAA TRACON SMA TRACON (SMA)
Sat 17:15:26 38.7192 -90.2542 304° West 136 253 1,100 -585 Descending FAA TRACON SMA TRACON (SMA)
Sat 17:15:46 38.7253 -90.2669 302° West 137 254 900 -600 Descending FAA TRACON SMA TRACON (SMA)
Sat 17:16:06 38.7314 -90.2794 302° West 137 254 700 -600 Descending FAA TRACON SMA TRACON (SMA)
Sat 17:18:00 38.7487 -90.3700 303° West  Level Estimated

Login

Don't have an account? Register now (free) for customized features, flight alerts, and more!